Time;durP1;ratioP1;P1;durP2;ratioP2;P2;SDS_P1;SDS_P2;PMS_P1;PMS_P2;Temp;Humidity;BMP_temperature;BMP_pressure;BME280_temperature;BME280_humidity;BME280_pressure;Samples;Min_cycle;Max_cycle;Signal;HPM_P1;HPM_P2
2023/02/21 02:14:21;;;;;;;1.00;0.90;;;9.80;97.30;;;;;;5139572;27;20405;-84
2023/02/21 02:17:22;;;;;;;1.33;1.23;;;9.90;97.30;;;;;;5117995;28;20473;-83
2023/02/21 02:20:06;;;;;;;3.53;1.97;;;9.80;97.30;;;;;;5114094;28;20450;-83
2023/02/21 02:23:17;;;;;;;1.47;1.37;;;9.80;97.30;;;;;;5127214;28;21118;-84
2023/02/21 02:26:10;;;;;;;2.53;2.17;;;9.80;97.30;;;;;;5118397;27;20502;-83
2023/02/21 02:28:52;;;;;;;1.67;1.57;;;9.80;97.30;;;;;;5118557;27;20421;-82
2023/02/21 02:31:39;;;;;;;2.30;1.50;;;9.80;97.30;;;;;;5114478;27;20888;-82
2023/02/21 02:34:22;;;;;;;2.03;1.93;;;9.90;97.30;;;;;;5136624;27;20406;-82
2023/02/21 02:37:04;;;;;;;3.13;1.50;;;9.80;97.30;;;;;;5093799;27;20442;-83
2023/02/21 02:39:58;;;;;;;2.93;1.57;;;9.90;97.30;;;;;;5111245;27;20458;-82
2023/02/21 02:42:54;;;;;;;5.20;2.63;;;9.90;97.30;;;;;;5136698;27;20403;-83
2023/02/21 02:45:38;;;;;;;2.80;2.60;;;9.80;97.30;;;;;;5117929;27;20407;-84
2023/02/21 02:48:19;;;;;;;6.40;2.50;;;9.80;97.30;;;;;;5136605;27;20434;-84
2023/02/21 02:50:47;;;;;;;1.43;1.33;;;9.80;97.30;;;;;;5118387;27;20417;-85
2023/02/21 02:53:20;;;;;;;2.00;1.90;;;9.80;97.30;;;;;;5117950;27;20438;-83
2023/02/21 02:56:08;;;;;;;2.30;1.57;;;9.80;97.30;;;;;;5117722;27;20418;-82
2023/02/21 02:58:42;;;;;;;3.37;3.03;;;9.80;97.30;;;;;;5135889;27;20403;-84
2023/02/21 03:01:19;;;;;;;1.23;1.13;;;9.80;97.30;;;;;;5135495;27;20422;-83
2023/02/21 03:04:10;;;;;;;5.93;2.60;;;9.80;97.30;;;;;;5106168;28;20407;-85
2023/02/21 03:07:01;;;;;;;2.17;2.00;;;9.80;97.30;;;;;;5113654;27;20503;-84
2023/02/21 03:09:32;;;;;;;2.50;1.80;;;9.80;97.30;;;;;;5109967;27;20419;-84
2023/02/21 03:12:08;;;;;;;2.90;1.73;;;9.80;97.30;;;;;;5115093;27;20417;-85
2023/02/21 03:14:59;;;;;;;2.10;1.90;;;9.80;97.30;;;;;;5135459;27;20411;-83
2023/02/21 03:17:28;;;;;;;1.63;1.53;;;9.80;97.30;;;;;;5131435;27;20469;-84
2023/02/21 03:19:57;;;;;;;3.50;1.93;;;9.80;97.30;;;;;;5133282;27;21000;-84
2023/02/21 03:22:28;;;;;;;4.73;2.07;;;9.80;97.30;;;;;;5127359;27;21065;-85
2023/02/21 03:24:55;;;;;;;2.33;1.60;;;9.80;97.30;;;;;;5109163;28;20419;-83
2023/02/21 03:27:22;;;;;;;2.23;2.03;;;9.80;97.30;;;;;;5115350;27;20434;-84
2023/02/21 03:29:49;;;;;;;2.37;2.20;;;9.80;97.30;;;;;;5117255;27;20421;-83
2023/02/21 03:34:51;;;;;;;1.80;1.67;;;9.80;97.30;;;;;;5129034;27;20407;-83
2023/02/21 03:37:27;;;;;;;2.90;2.50;;;9.80;97.30;;;;;;5116031;27;20445;-84
2023/02/21 03:39:52;;;;;;;3.13;2.93;;;9.80;97.30;;;;;;5117043;27;20245;-83
2023/02/21 03:42:18;;;;;;;2.63;2.13;;;9.80;97.30;;;;;;5134524;27;20442;-83
2023/02/21 03:44:43;;;;;;;8.60;3.40;;;9.80;97.30;;;;;;5135620;27;20264;-84
2023/02/21 03:47:09;;;;;;;3.87;2.30;;;9.80;97.30;;;;;;5118410;27;20201;-83
2023/02/21 03:49:34;;;;;;;4.40;3.10;;;9.80;97.30;;;;;;5124381;27;20337;-84
2023/02/21 03:52:00;;;;;;;4.90;2.50;;;9.80;97.30;;;;;;5117091;27;20776;-83
2023/02/21 03:54:26;;;;;;;4.63;3.00;;;9.80;97.30;;;;;;5110589;27;20185;-84
2023/02/21 03:56:51;;;;;;;5.63;1.90;;;9.80;97.30;;;;;;5115089;27;20926;-81
2023/02/21 03:59:16;;;;;;;4.30;2.37;;;9.80;97.30;;;;;;5116951;27;20491;-80
2023/02/21 04:01:42;;;;;;;4.33;2.30;;;9.80;97.30;;;;;;5119001;27;20181;-84
2023/02/21 04:04:08;;;;;;;4.67;3.00;;;9.80;97.30;;;;;;5108163;27;20530;-84
2023/02/21 04:06:33;;;;;;;2.70;2.50;;;9.80;97.30;;;;;;5125457;27;20250;-84
2023/02/21 04:08:58;;;;;;;1.63;1.53;;;9.80;97.30;;;;;;5116203;27;20280;-84
2023/02/21 04:11:24;;;;;;;2.63;2.43;;;9.80;97.30;;;;;;5135049;27;20185;-83
2023/02/21 04:13:49;;;;;;;6.33;4.70;;;9.80;97.30;;;;;;5116421;27;20276;-83
2023/02/21 04:16:15;;;;;;;2.40;2.20;;;9.80;97.30;;;;;;5123804;27;20703;-80
2023/02/21 04:18:40;;;;;;;2.70;1.93;;;9.80;97.30;;;;;;5116273;27;20181;-84
2023/02/21 04:21:06;;;;;;;5.00;2.67;;;9.70;97.30;;;;;;5123091;27;20184;-84
2023/02/21 04:23:31;;;;;;;2.43;2.20;;;9.70;97.30;;;;;;5120941;27;20173;-84
2023/02/21 04:25:57;;;;;;;2.70;2.50;;;9.70;97.30;;;;;;5125734;27;20192;-82
2023/02/21 04:28:22;;;;;;;2.40;1.40;;;9.70;97.30;;;;;;5118536;27;20232;-84
2023/02/21 04:30:48;;;;;;;8.40;4.20;;;9.60;97.30;;;;;;5116243;27;20241;-83
2023/02/21 04:33:13;;;;;;;6.00;4.03;;;9.60;97.30;;;;;;5116726;27;20181;-84
2023/02/21 04:35:39;;;;;;;9.13;2.93;;;9.60;97.30;;;;;;5136292;27;20192;-84
2023/02/21 04:38:04;;;;;;;5.73;2.13;;;9.60;97.30;;;;;;5124729;27;20268;-84
2023/02/21 04:40:30;;;;;;;2.73;2.17;;;9.60;97.30;;;;;;5118198;27;20265;-82
2023/02/21 04:42:55;;;;;;;4.77;2.20;;;9.60;97.30;;;;;;5124912;27;20184;-83
2023/02/21 04:45:21;;;;;;;6.97;3.33;;;9.60;97.30;;;;;;5112795;27;20238;-84
2023/02/21 04:47:46;;;;;;;2.60;2.40;;;9.60;97.30;;;;;;5116255;27;20212;-85
2023/02/21 04:50:12;;;;;;;6.37;4.23;;;9.60;97.30;;;;;;5115811;27;20190;-80
2023/02/21 04:52:39;;;;;;;5.10;3.33;;;9.60;97.30;;;;;;5115900;27;20205;-83
2023/02/21 04:55:06;;;;;;;4.60;2.93;;;9.60;97.30;;;;;;5117175;27;20263;-84
2023/02/21 04:57:31;;;;;;;4.23;2.67;;;9.60;97.30;;;;;;5119917;27;20460;-84
2023/02/21 04:59:58;;;;;;;4.00;1.30;;;9.60;97.30;;;;;;5116658;27;20442;-80
2023/02/21 05:02:24;;;;;;;20.83;2.97;;;9.60;97.30;;;;;;5115752;27;20181;-84
2023/02/21 05:04:50;;;;;;;3.37;2.70;;;9.60;97.30;;;;;;5115602;27;20423;-84
2023/02/21 05:07:16;;;;;;;4.30;2.97;;;9.60;97.30;;;;;;5117582;27;21015;-84
2023/02/21 05:09:41;;;;;;;11.73;3.57;;;9.60;97.30;;;;;;5115406;27;20177;-83
2023/02/21 05:12:10;;;;;;;4.27;4.00;;;9.60;97.30;;;;;;5115880;27;20177;-84
2023/02/21 05:14:37;;;;;;;2.37;2.17;;;9.60;97.30;;;;;;5115954;27;20181;-83
2023/02/21 05:17:03;;;;;;;12.33;3.17;;;9.60;97.30;;;;;;5115993;27;20494;-82
2023/02/21 05:19:28;;;;;;;3.87;2.90;;;9.60;97.30;;;;;;5116273;27;20511;-83
2023/02/21 05:21:59;;;;;;;3.07;2.77;;;9.60;97.30;;;;;;5116083;27;20254;-83
2023/02/21 05:24:26;;;;;;;4.63;3.00;;;9.60;97.30;;;;;;5118544;27;20201;-81
2023/02/21 05:26:52;;;;;;;7.37;5.10;;;9.60;97.30;;;;;;5115843;27;20480;-84
2023/02/21 05:29:18;;;;;;;6.13;4.63;;;9.60;97.30;;;;;;5122818;27;20422;-82
2023/02/21 05:31:44;;;;;;;5.10;4.00;;;9.60;97.30;;;;;;5116046;27;20418;-83
2023/02/21 05:34:10;;;;;;;2.70;2.50;;;9.60;97.30;;;;;;5135544;27;20174;-83
2023/02/21 05:36:35;;;;;;;2.97;2.60;;;9.60;97.30;;;;;;5128000;27;20536;-83
2023/02/21 05:39:01;;;;;;;2.70;2.50;;;9.60;97.30;;;;;;5117337;27;20193;-80
2023/02/21 05:41:26;;;;;;;6.50;3.80;;;9.60;97.30;;;;;;5115191;27;20285;-83
2023/02/21 05:43:52;;;;;;;3.03;2.80;;;9.50;97.30;;;;;;5119248;27;20176;-83
2023/02/21 05:46:24;;;;;;;4.10;3.53;;;9.60;97.30;;;;;;5117477;27;20222;-82
2023/02/21 05:48:51;;;;;;;4.53;4.27;;;9.60;97.30;;;;;;5115472;28;20677;-83
2023/02/21 05:51:16;;;;;;;3.30;2.60;;;9.60;97.30;;;;;;5115582;28;20411;-83
2023/02/21 05:53:42;;;;;;;7.07;3.83;;;9.60;97.30;;;;;;5134664;28;20503;-84
2023/02/21 05:56:08;;;;;;;4.80;2.97;;;9.60;97.30;;;;;;5115396;28;20195;-83
2023/02/21 05:58:33;;;;;;;2.53;2.33;;;9.60;97.30;;;;;;5143176;27;20402;-83
2023/02/21 06:00:59;;;;;;;3.33;2.87;;;9.50;97.30;;;;;;5120239;27;20173;-80
2023/02/21 06:03:24;;;;;;;4.20;2.93;;;9.50;97.30;;;;;;5138317;27;20197;-83
2023/02/21 06:05:50;;;;;;;6.53;3.33;;;9.60;97.30;;;;;;5116730;27;20223;-79
2023/02/21 06:08:15;;;;;;;2.00;1.57;;;9.60;97.30;;;;;;5121854;27;20230;-83
2023/02/21 06:10:41;;;;;;;4.10;3.87;;;9.60;97.30;;;;;;5131657;27;20185;-83
2023/02/21 06:13:06;;;;;;;2.27;2.07;;;9.60;97.30;;;;;;5135917;27;20181;-83
2023/02/21 06:15:32;;;;;;;2.20;2.00;;;9.60;97.30;;;;;;5128256;27;20177;-81
2023/02/21 06:17:57;;;;;;;5.83;3.13;;;9.60;97.30;;;;;;5135394;27;20212;-83
2023/02/21 06:20:23;;;;;;;1.90;1.50;;;9.60;97.30;;;;;;5120040;27;20215;-83
2023/02/21 06:22:48;;;;;;;4.53;3.03;;;9.60;97.30;;;;;;5116410;27;20225;-84
2023/02/21 06:25:14;;;;;;;7.83;3.13;;;9.60;97.30;;;;;;5116247;27;20173;-84
2023/02/21 06:27:40;;;;;;;10.70;4.27;;;9.60;97.30;;;;;;5117837;27;20193;-83
2023/02/21 06:30:06;;;;;;;5.30;2.73;;;9.50;97.30;;;;;;5121348;27;20514;-84
2023/02/21 06:32:32;;;;;;;10.43;5.07;;;9.50;97.30;;;;;;5107207;27;20208;-83
2023/02/21 06:34:58;;;;;;;3.07;2.30;;;9.50;97.30;;;;;;5104892;27;20936;-82
2023/02/21 06:37:23;;;;;;;10.37;4.67;;;9.50;97.30;;;;;;5108619;27;20449;-83
2023/02/21 06:39:49;;;;;;;5.50;3.97;;;9.50;97.30;;;;;;5111208;28;20201;-84
2023/02/21 06:42:15;;;;;;;11.20;4.43;;;9.50;97.30;;;;;;5136502;27;20255;-83
2023/02/21 06:44:48;;;;;;;4.03;3.27;;;9.50;97.30;;;;;;5134038;27;20176;-83
2023/02/21 06:47:14;;;;;;;5.27;4.10;;;9.50;97.30;;;;;;5116222;27;20438;-83
2023/02/21 06:49:40;;;;;;;4.23;3.63;;;9.50;97.30;;;;;;5119933;27;20426;-84
2023/02/21 06:52:07;;;;;;;7.23;4.53;;;9.50;97.30;;;;;;5128129;27;20411;-83
2023/02/21 06:54:33;;;;;;;6.33;2.80;;;9.50;97.30;;;;;;5116590;27;20422;-83
2023/02/21 06:57:00;;;;;;;3.67;2.67;;;9.50;97.30;;;;;;5116036;27;20431;-83
2023/02/21 06:59:28;;;;;;;9.30;4.90;;;9.50;97.30;;;;;;5118518;27;20203;-83
2023/02/21 07:01:55;;;;;;;10.50;4.30;;;9.60;97.30;;;;;;5113604;27;20561;-83
2023/02/21 07:04:20;;;;;;;6.77;3.40;;;9.60;97.30;;;;;;5118439;27;20429;-82
2023/02/21 07:06:46;;;;;;;7.83;3.90;;;9.70;97.30;;;;;;5113770;27;20960;-83
2023/02/21 07:09:12;;;;;;;4.40;2.47;;;9.70;97.30;;;;;;5113847;27;20169;-83
2023/02/21 07:11:38;;;;;;;6.90;4.03;;;9.70;97.30;;;;;;5131222;27;20188;-83
2023/02/21 07:14:03;;;;;;;9.07;5.60;;;9.80;97.30;;;;;;5118038;27;20180;-83
2023/02/21 07:16:29;;;;;;;1.73;1.57;;;9.80;97.30;;;;;;5114970;27;20482;-83
2023/02/21 07:18:54;;;;;;;3.13;2.33;;;9.90;97.30;;;;;;5128554;27;20177;-83
2023/02/21 07:21:20;;;;;;;4.50;4.20;;;9.90;97.30;;;;;;5117119;27;20185;-84
2023/02/21 07:23:47;;;;;;;6.10;4.20;;;9.90;97.30;;;;;;5113959;27;20182;-82
2023/02/21 07:26:13;;;;;;;4.80;2.40;;;10.00;97.30;;;;;;5117540;27;20509;-84
2023/02/21 07:28:39;;;;;;;3.83;2.93;;;10.00;97.30;;;;;;5112796;27;20421;-83
2023/02/21 07:31:04;;;;;;;6.43;4.30;;;10.00;97.30;;;;;;5109467;27;20809;-81
2023/02/21 07:33:30;;;;;;;4.63;2.80;;;10.00;97.30;;;;;;5117292;27;20195;-84
2023/02/21 07:35:55;;;;;;;3.50;2.60;;;10.00;97.30;;;;;;5115012;27;20792;-83
2023/02/21 07:38:25;;;;;;;2.97;2.00;;;10.00;97.30;;;;;;5113195;27;20177;-81
2023/02/21 07:40:53;;;;;;;7.30;4.33;;;10.10;97.30;;;;;;5116566;27;20224;-83
2023/02/21 07:43:19;;;;;;;6.20;3.23;;;10.10;97.30;;;;;;5113046;27;20927;-83
2023/02/21 07:45:44;;;;;;;2.30;2.13;;;10.10;97.30;;;;;;5113605;27;20412;-84
2023/02/21 07:48:13;;;;;;;3.23;2.40;;;10.10;97.30;;;;;;5116470;27;20786;-83
2023/02/21 07:50:39;;;;;;;4.93;3.30;;;10.10;97.30;;;;;;5126488;27;20177;-84
2023/02/21 07:53:05;;;;;;;3.93;3.10;;;10.20;97.30;;;;;;5129963;27;20422;-83
2023/02/21 07:55:30;;;;;;;4.43;2.30;;;10.10;97.30;;;;;;5134471;27;20414;-80
2023/02/21 07:57:55;;;;;;;8.87;5.70;;;10.20;97.30;;;;;;5113594;27;20656;-83
2023/02/21 08:00:24;;;;;;;5.47;3.70;;;10.20;97.30;;;;;;5134455;27;20197;-83
2023/02/21 08:02:49;;;;;;;3.43;3.27;;;10.30;97.30;;;;;;5110169;27;20173;-84
2023/02/21 08:05:17;;;;;;;8.43;3.63;;;10.30;97.30;;;;;;5116115;27;20422;-80
2023/02/21 08:07:42;;;;;;;3.60;3.40;;;10.30;97.30;;;;;;5131418;27;20201;-84
2023/02/21 08:10:09;;;;;;;3.47;3.23;;;10.30;97.30;;;;;;5130795;27;20434;-83
2023/02/21 08:12:34;;;;;;;5.97;3.23;;;10.30;97.30;;;;;;5114830;27;20250;-83
2023/02/21 08:15:00;;;;;;;5.93;2.13;;;10.40;97.30;;;;;;5114913;27;20980;-83
2023/02/21 08:17:25;;;;;;;4.67;2.67;;;10.40;97.30;;;;;;5140659;27;20232;-83
2023/02/21 08:19:51;;;;;;;2.50;2.37;;;10.40;97.30;;;;;;5116139;27;20201;-83
2023/02/21 08:22:17;;;;;;;10.03;4.10;;;10.40;97.30;;;;;;5114552;27;20256;-83
2023/02/21 08:24:42;;;;;;;6.87;3.87;;;10.40;97.30;;;;;;5114923;27;20180;-84
2023/02/21 08:27:08;;;;;;;3.40;2.40;;;10.40;97.30;;;;;;5115820;27;20431;-85
2023/02/21 08:29:33;;;;;;;2.50;2.10;;;10.40;97.30;;;;;;5113702;27;20285;-84
2023/02/21 08:31:59;;;;;;;3.37;3.17;;;10.40;97.30;;;;;;5132843;27;20250;-83
2023/02/21 08:34:24;;;;;;;3.03;2.40;;;10.40;97.30;;;;;;5109707;27;20185;-82
2023/02/21 08:36:50;;;;;;;3.63;2.20;;;10.50;97.30;;;;;;5114334;27;20192;-84
2023/02/21 08:39:15;;;;;;;5.60;3.23;;;10.50;97.30;;;;;;5129007;27;20213;-84
2023/02/21 08:41:43;;;;;;;4.83;2.90;;;10.60;97.30;;;;;;5128233;27;20267;-82
2023/02/21 08:44:11;;;;;;;8.17;3.57;;;10.70;97.30;;;;;;5112115;27;20177;-84
2023/02/21 08:46:40;;;;;;;10.90;3.40;;;10.70;97.30;;;;;;5113362;27;20450;-84
2023/02/21 08:49:06;;;;;;;13.63;4.03;;;10.80;97.30;;;;;;5110128;27;21003;-84
2023/02/21 08:51:32;;;;;;;5.07;2.87;;;10.80;97.30;;;;;;5115193;27;20422;-84
2023/02/21 08:53:58;;;;;;;2.93;2.73;;;10.90;97.30;;;;;;5118693;27;20666;-81
2023/02/21 08:56:25;;;;;;;3.07;2.87;;;10.90;97.30;;;;;;5115370;27;20443;-83
2023/02/21 08:58:55;;;;;;;9.77;2.90;;;10.90;97.30;;;;;;5139385;27;20422;-83
2023/02/21 09:01:21;;;;;;;3.73;3.40;;;10.90;97.30;;;;;;5118501;27;20410;-83
2023/02/21 09:03:47;;;;;;;3.13;2.93;;;10.90;97.30;;;;;;5105958;27;20414;-84
2023/02/21 09:06:13;;;;;;;1.70;1.60;;;11.00;97.30;;;;;;5141683;27;20455;-82
2023/02/21 09:08:39;;;;;;;2.20;2.07;;;11.00;97.30;;;;;;5115175;27;20177;-85
2023/02/21 09:11:05;;;;;;;4.87;3.27;;;11.00;97.30;;;;;;5134130;27;20239;-84
2023/02/21 09:13:34;;;;;;;11.10;3.43;;;11.00;97.30;;;;;;5115535;27;20789;-83
2023/02/21 09:16:01;;;;;;;10.10;3.97;;;11.10;97.30;;;;;;5115796;27;20458;-83
2023/02/21 09:18:28;;;;;;;7.87;3.53;;;11.10;97.30;;;;;;5115749;27;20415;-83
2023/02/21 09:20:55;;;;;;;3.87;2.70;;;11.10;97.30;;;;;;5115350;27;21262;-85
2023/02/21 09:23:22;;;;;;;2.37;2.17;;;11.20;97.30;;;;;;5126740;27;20494;-84
2023/02/21 09:25:47;;;;;;;11.93;4.30;;;11.30;97.30;;;;;;5112026;27;20411;-84
2023/02/21 09:28:14;;;;;;;2.53;2.33;;;11.50;97.30;;;;;;5112213;28;21091;-85
2023/02/21 09:30:40;;;;;;;3.90;3.70;;;11.50;97.30;;;;;;5135805;27;20266;-83
2023/02/21 09:33:06;;;;;;;3.03;2.10;;;11.50;97.30;;;;;;5133051;27;20415;-85
2023/02/21 09:35:31;;;;;;;5.30;3.27;;;11.40;97.30;;;;;;5114108;27;20187;-83
2023/02/21 09:37:58;;;;;;;5.27;2.23;;;11.40;97.30;;;;;;5115065;27;20428;-82
2023/02/21 09:40:40;;;;;;;3.80;2.50;;;11.40;97.30;;;;;;5114696;27;20193;-83
2023/02/21 09:43:13;;;;;;;4.67;2.73;;;11.50;97.30;;;;;;5138118;27;20466;-84
2023/02/21 09:45:39;;;;;;;3.93;2.87;;;11.50;97.30;;;;;;5114340;27;20475;-84
2023/02/21 09:48:13;;;;;;;7.83;5.27;;;11.50;97.30;;;;;;5133105;27;20418;-85
2023/02/21 09:50:54;;;;;;;7.70;3.47;;;11.50;97.30;;;;;;5132585;27;20180;-85
2023/02/21 09:53:26;;;;;;;5.10;2.77;;;11.60;97.30;;;;;;5134968;27;20428;-83
2023/02/21 09:55:59;;;;;;;5.53;2.50;;;11.60;97.30;;;;;;5110645;28;20525;-84
2023/02/21 09:58:24;;;;;;;2.63;2.43;;;11.70;97.30;;;;;;5130938;27;21008;-84
2023/02/21 10:00:50;;;;;;;9.30;3.17;;;11.70;97.30;;;;;;5106025;28;20546;-85
2023/02/21 10:03:40;;;;;;;4.07;2.93;;;11.60;97.30;;;;;;5121716;28;20184;-84
2023/02/21 10:06:42;;;;;;;5.83;2.93;;;11.50;97.30;;;;;;5124807;28;20189;-85
2023/02/21 10:09:36;;;;;;;7.60;1.90;;;11.40;97.30;;;;;;5111628;28;20419;-84
2023/02/21 10:12:12;;;;;;;2.30;2.10;;;11.40;97.30;;;;;;5107064;28;20415;-84
2023/02/21 10:15:14;;;;;;;1.57;1.50;;;11.40;97.30;;;;;;5130741;28;20433;-84
2023/02/21 10:18:03;;;;;;;3.40;2.50;;;11.30;97.30;;;;;;5110543;27;20462;-85
2023/02/21 10:20:32;;;;;;;5.63;4.00;;;11.30;97.30;;;;;;5112091;28;20493;-83
2023/02/21 10:22:59;;;;;;;7.07;2.90;;;11.30;97.30;;;;;;5114202;28;20411;-83
2023/02/21 10:25:30;;;;;;;3.73;2.50;;;11.40;97.30;;;;;;5128788;28;20419;-84
2023/02/21 10:27:57;;;;;;;6.20;2.30;;;11.40;97.30;;;;;;5132831;28;20410;-84
2023/02/21 10:30:36;;;;;;;3.60;2.87;;;11.40;97.30;;;;;;5113612;28;20423;-83
2023/02/21 10:33:05;;;;;;;2.10;1.93;;;11.40;97.30;;;;;;5113576;28;21016;-84
2023/02/21 10:35:35;;;;;;;2.93;2.03;;;11.50;97.30;;;;;;5114359;28;20628;-84
2023/02/21 10:38:05;;;;;;;4.20;2.57;;;11.60;97.30;;;;;;5111738;28;20450;-84
2023/02/21 10:40:36;;;;;;;1.77;1.67;;;11.60;97.30;;;;;;5114331;28;20489;-84
2023/02/21 10:43:20;;;;;;;2.80;2.60;;;11.60;97.30;;;;;;5112827;28;20423;-85
2023/02/21 10:46:00;;;;;;;2.27;2.10;;;11.70;97.30;;;;;;5117186;27;20418;-84
2023/02/21 10:48:31;;;;;;;2.67;2.43;;;11.70;97.30;;;;;;5115569;27;20418;-84
2023/02/21 10:50:57;;;;;;;3.00;2.47;;;11.70;97.30;;;;;;5113823;27;20422;-84
2023/02/21 10:53:31;;;;;;;2.80;1.97;;;11.70;97.30;;;;;;5117772;27;20422;-85
2023/02/21 10:56:20;;;;;;;3.53;2.00;;;11.80;97.30;;;;;;5118970;27;20692;-84
2023/02/21 10:59:00;;;;;;;19.03;3.63;;;11.80;97.30;;;;;;5116391;27;21230;-84
2023/02/21 11:01:26;;;;;;;3.10;2.07;;;11.80;97.30;;;;;;5139149;27;20417;-85
2023/02/21 11:04:15;;;;;;;5.33;4.00;;;11.80;97.30;;;;;;5117583;27;20770;-83
2023/02/21 11:07:10;;;;;;;19.73;2.47;;;11.80;97.30;;;;;;5114436;27;20212;-84
2023/02/21 11:09:42;;;;;;;3.43;2.53;;;11.80;97.30;;;;;;5115884;27;20419;-84
2023/02/21 11:12:25;;;;;;;3.83;3.63;;;11.90;97.30;;;;;;5118019;27;20790;-84
2023/02/21 11:14:51;;;;;;;4.70;3.90;;;11.90;97.30;;;;;;5127692;27;20473;-84
2023/02/21 11:17:19;;;;;;;4.07;2.83;;;12.00;97.30;;;;;;5117308;27;20835;-84
2023/02/21 11:19:49;;;;;;;2.27;2.07;;;12.00;97.30;;;;;;5117366;27;20200;-85
2023/02/21 11:22:17;;;;;;;3.90;3.70;;;12.00;97.30;;;;;;5136145;27;20830;-85
2023/02/21 11:24:52;;;;;;;2.93;2.73;;;12.00;97.30;;;;;;5136637;27;20426;-84
2023/02/21 11:27:17;;;;;;;2.80;2.40;;;12.00;97.30;;;;;;5117066;27;20569;-81
2023/02/21 11:29:46;;;;;;;3.27;2.40;;;12.00;97.30;;;;;;5116810;27;20997;-84
2023/02/21 11:32:22;;;;;;;6.20;1.57;;;12.00;97.30;;;;;;5131128;27;20238;-81
2023/02/21 11:34:49;;;;;;;5.60;4.40;;;11.90;97.30;;;;;;5118878;27;20422;-85
2023/02/21 11:37:15;;;;;;;3.50;2.43;;;11.90;97.30;;;;;;5115778;27;20430;-84
2023/02/21 11:39:48;;;;;;;2.43;2.23;;;11.90;97.30;;;;;;5135800;27;20489;-84
2023/02/21 11:42:43;;;;;;;6.23;3.70;;;11.90;97.30;;;;;;5144890;27;20925;-85
2023/02/21 11:45:28;;;;;;;2.07;1.93;;;11.90;97.30;;;;;;5104897;27;20409;-84
2023/02/21 11:48:01;;;;;;;3.77;3.27;;;11.90;97.30;;;;;;5132188;27;20529;-85
2023/02/21 11:50:35;;;;;;;3.93;1.77;;;11.90;97.30;;;;;;5115320;27;20421;-85
2023/02/21 11:53:35;;;;;;;2.93;2.03;;;12.00;97.30;;;;;;5110635;27;20415;-85
2023/02/21 11:56:17;;;;;;;15.17;3.83;;;12.00;97.30;;;;;;5120595;27;20485;-85
2023/02/21 11:59:21;;;;;;;2.50;2.33;;;12.10;97.30;;;;;;5112648;27;20521;-85
2023/02/21 12:02:04;;;;;;;5.27;4.23;;;12.30;97.30;;;;;;5117639;27;20870;-85
2023/02/21 12:04:35;;;;;;;8.53;4.20;;;12.60;97.30;;;;;;5141720;27;20405;-86
2023/02/21 12:07:11;;;;;;;4.10;1.87;;;12.80;97.30;;;;;;5114542;27;20426;-84
2023/02/21 12:09:56;;;;;;;14.23;3.20;;;12.90;97.30;;;;;;5136708;27;20406;-85
2023/02/21 12:12:31;;;;;;;5.53;4.77;;;13.10;97.30;;;;;;5114488;27;20411;-85
2023/02/21 12:15:18;;;;;;;5.83;3.30;;;13.20;97.30;;;;;;5115658;27;20471;-84
2023/02/21 12:18:13;;;;;;;6.27;2.97;;;13.10;97.30;;;;;;5115699;27;20903;-84
2023/02/21 12:20:49;;;;;;;3.03;2.27;;;13.10;97.30;;;;;;5123218;27;20462;-84
2023/02/21 12:23:43;;;;;;;7.37;2.00;;;13.30;97.30;;;;;;5110281;27;20781;-84
2023/02/21 12:26:21;;;;;;;3.53;2.80;;;13.30;97.30;;;;;;5139722;27;20513;-84
2023/02/21 12:28:52;;;;;;;5.17;2.47;;;13.20;97.30;;;;;;5118962;27;20647;-83
2023/02/21 12:31:28;;;;;;;4.13;3.07;;;13.10;97.30;;;;;;5133287;27;20488;-85
2023/02/21 12:34:01;;;;;;;1.77;1.67;;;13.20;97.30;;;;;;5120583;27;20407;-83
2023/02/21 12:36:54;;;;;;;2.03;1.93;;;13.20;97.30;;;;;;5115241;27;20438;-84
2023/02/21 12:39:52;;;;;;;4.43;3.37;;;13.10;97.30;;;;;;5116789;27;20565;-83
2023/02/21 12:43:00;;;;;;;1.77;1.67;;;12.90;97.30;;;;;;5137635;27;20407;-84
2023/02/21 12:45:36;;;;;;;13.83;3.20;;;12.80;97.30;;;;;;5128307;27;20435;-85
2023/02/21 12:48:07;;;;;;;7.13;1.93;;;12.80;97.30;;;;;;5143768;27;20410;-84
2023/02/21 12:50:38;;;;;;;5.40;3.37;;;12.80;97.30;;;;;;5134690;27;20418;-82
2023/02/21 12:53:16;;;;;;;4.10;2.33;;;12.80;97.30;;;;;;5116153;27;20850;-85
2023/02/21 12:55:46;;;;;;;3.10;2.23;;;12.70;97.30;;;;;;5141078;27;20418;-84
2023/02/21 12:58:23;;;;;;;5.50;3.93;;;12.70;97.30;;;;;;5116917;27;20420;-83
2023/02/21 13:01:00;;;;;;;3.00;1.90;;;12.60;97.30;;;;;;5134377;27;20458;-85
2023/02/21 13:03:55;;;;;;;11.90;2.50;;;12.60;97.30;;;;;;5120309;27;20414;-86
2023/02/21 13:06:32;;;;;;;1.23;1.20;;;12.60;97.30;;;;;;5119301;27;20435;-83
2023/02/21 13:09:25;;;;;;;6.30;2.53;;;12.60;97.30;;;;;;5108483;27;20413;-81
2023/02/21 13:12:26;;;;;;;10.53;3.30;;;12.60;97.30;;;;;;5133176;27;20414;-84
2023/02/21 13:15:15;;;;;;;3.33;2.80;;;12.60;97.30;;;;;;5106099;27;20407;-86
2023/02/21 13:17:43;;;;;;;1.93;1.83;;;12.60;97.30;;;;;;5131581;27;20489;-84
2023/02/21 13:20:16;;;;;;;2.93;2.13;;;12.60;97.30;;;;;;5123264;27;20748;-84
2023/02/21 13:23:19;;;;;;;2.10;2.00;;;12.60;97.30;;;;;;5125947;27;20415;-86
2023/02/21 13:25:54;;;;;;;1.83;1.73;;;12.50;97.30;;;;;;5114775;27;20624;-85
2023/02/21 13:28:27;;;;;;;6.20;2.83;;;12.50;97.30;;;;;;5111002;27;20398;-84
2023/02/21 13:31:04;;;;;;;2.40;1.60;;;12.50;97.30;;;;;;5111877;27;20980;-86
2023/02/21 13:33:45;;;;;;;2.60;2.40;;;12.50;97.30;;;;;;5124137;27;20417;-85
2023/02/21 13:36:30;;;;;;;2.60;2.43;;;12.50;97.30;;;;;;5119001;27;20442;-85
2023/02/21 13:39:02;;;;;;;4.53;3.53;;;12.50;97.30;;;;;;5112476;27;20707;-84
2023/02/21 13:41:33;;;;;;;2.17;2.03;;;12.50;97.30;;;;;;5134267;27;20410;-85
2023/02/21 13:44:04;;;;;;;5.40;2.80;;;12.50;97.30;;;;;;5144262;27;20410;-85
2023/02/21 13:46:29;;;;;;;6.10;3.10;;;12.60;97.30;;;;;;5141253;27;20526;-84
2023/02/21 13:49:32;;;;;;;1.63;1.57;;;12.60;97.30;;;;;;5114391;28;20955;-84
2023/02/21 13:52:50;;;;;;;2.27;1.90;;;12.60;97.30;;;;;;5132594;27;20177;-85
2023/02/21 13:55:16;;;;;;;5.23;2.27;;;12.60;97.30;;;;;;5089351;28;20502;-85
2023/02/21 13:57:43;;;;;;;5.00;1.80;;;12.50;97.30;;;;;;5115612;28;20555;-85
2023/02/21 14:00:24;;;;;;;3.37;2.27;;;12.50;97.30;;;;;;5110423;28;20455;-83
2023/02/21 14:03:12;;;;;;;13.53;2.80;;;12.50;97.30;;;;;;5129929;27;20441;-84
2023/02/21 14:05:48;;;;;;;2.80;2.07;;;12.50;97.30;;;;;;5132403;28;20804;-81
2023/02/21 14:08:29;;;;;;;4.50;2.73;;;12.60;97.30;;;;;;5114918;27;20414;-83
2023/02/21 14:11:04;;;;;;;3.93;2.40;;;12.60;97.30;;;;;;5130243;27;20406;-83
2023/02/21 14:13:49;;;;;;;1.60;1.50;;;12.70;97.30;;;;;;5132226;28;20977;-84
2023/02/21 14:16:27;;;;;;;1.43;1.33;;;12.90;97.30;;;;;;5114527;28;20481;-85
2023/02/21 14:19:01;;;;;;;2.67;2.10;;;12.90;97.30;;;;;;5115359;27;20523;-83
2023/02/21 14:21:41;;;;;;;4.63;2.07;;;12.90;97.30;;;;;;5133240;27;20427;-81
2023/02/21 14:24:12;;;;;;;3.10;2.90;;;12.90;97.30;;;;;;5137876;27;20410;-84
2023/02/21 14:26:55;;;;;;;1.83;1.73;;;12.90;97.30;;;;;;5121531;27;20442;-83
2023/02/21 14:29:37;;;;;;;5.30;2.23;;;12.90;97.30;;;;;;5114175;27;20928;-85
2023/02/21 14:32:03;;;;;;;8.83;3.13;;;12.80;97.30;;;;;;5127612;27;20932;-84
2023/02/21 14:34:48;;;;;;;5.73;1.57;;;12.70;97.30;;;;;;5122452;27;20495;-85
2023/02/21 14:37:16;;;;;;;1.90;1.80;;;12.70;97.30;;;;;;5135497;27;20197;-84
2023/02/21 14:39:51;;;;;;;6.27;2.77;;;12.70;97.30;;;;;;5116440;27;20481;-85
2023/02/21 14:42:45;;;;;;;1.50;1.40;;;12.70;97.30;;;;;;5118225;27;20422;-84
2023/02/21 14:45:10;;;;;;;1.97;1.83;;;12.60;97.30;;;;;;5137442;27;20414;-83
2023/02/21 14:47:47;;;;;;;5.33;2.23;;;12.70;97.30;;;;;;5136773;27;20460;-83
2023/02/21 14:50:44;;;;;;;2.77;2.57;;;12.70;97.30;;;;;;5119623;27;20671;-84
2023/02/21 14:54:00;;;;;;;3.37;2.70;;;12.70;97.30;;;;;;5135452;27;20418;-84
2023/02/21 14:56:47;;;;;;;3.00;2.07;;;12.70;97.30;;;;;;5067331;28;20873;-84
2023/02/21 14:59:21;;;;;;;7.80;2.97;;;12.70;97.30;;;;;;5116784;27;20429;-85
2023/02/21 15:02:03;;;;;;;5.03;1.90;;;12.60;97.30;;;;;;5119883;27;20406;-83
2023/02/21 15:04:32;;;;;;;3.80;2.20;;;12.60;97.30;;;;;;5116894;27;20422;-83
2023/02/21 15:07:13;;;;;;;8.73;2.60;;;12.60;97.30;;;;;;5109701;27;20481;-84
2023/02/21 15:09:39;;;;;;;1.27;1.20;;;12.60;97.30;;;;;;5120893;27;20501;-84
2023/02/21 15:12:12;;;;;;;3.43;1.57;;;12.50;97.30;;;;;;5123999;27;20446;-84
2023/02/21 15:14:47;;;;;;;2.43;1.80;;;12.50;97.30;;;;;;5126870;27;20656;-84
2023/02/21 15:17:18;;;;;;;2.17;2.00;;;12.50;97.30;;;;;;5146188;27;20471;-84
2023/02/21 15:19:43;;;;;;;4.13;1.50;;;12.50;97.30;;;;;;5116403;27;20919;-84
2023/02/21 15:22:16;;;;;;;2.33;2.13;;;12.50;97.30;;;;;;5115842;27;20502;-85
2023/02/21 15:25:06;;;;;;;1.50;1.40;;;12.50;97.30;;;;;;5116800;27;20252;-85
2023/02/21 15:27:33;;;;;;;5.13;1.53;;;12.50;97.30;;;;;;5118257;27;20450;-84
2023/02/21 15:30:24;;;;;;;1.43;1.40;;;12.50;97.30;;;;;;5142366;27;20479;-84
2023/02/21 15:33:00;;;;;;;2.60;2.40;;;12.50;97.30;;;;;;5113707;27;20423;-84
2023/02/21 15:35:35;;;;;;;9.27;3.80;;;12.40;97.30;;;;;;5143121;27;20441;-84